createdAt,value
2017-07-30T00:02:00.428Z,6.70
2017-07-30T00:04:28.063Z,6.80
2017-07-30T00:06:55.662Z,7.23
2017-07-30T00:09:24.644Z,8.00
2017-07-30T00:11:53.193Z,7.53
2017-07-30T00:14:22.217Z,6.90
2017-07-30T00:16:49.861Z,7.57
2017-07-30T00:19:17.592Z,7.50
2017-07-30T00:21:45.255Z,7.00
2017-07-30T00:24:12.892Z,7.47
2017-07-30T00:26:40.495Z,6.90
2017-07-30T00:29:08.081Z,7.30
2017-07-30T00:31:36.022Z,6.63
2017-07-30T00:34:03.639Z,7.20
2017-07-30T00:36:31.237Z,7.20
2017-07-30T00:38:58.882Z,7.80
2017-07-30T00:41:26.463Z,7.83
2017-07-30T00:43:54.099Z,7.20
2017-07-30T00:46:21.717Z,7.57
2017-07-30T00:48:49.624Z,8.00
2017-07-30T00:51:17.223Z,7.87
2017-07-30T00:53:44.841Z,7.37
2017-07-30T00:56:12.446Z,7.03
2017-07-30T00:58:40.042Z,7.07
2017-07-30T01:01:08.114Z,7.87
2017-07-30T01:03:35.726Z,8.43
2017-07-30T01:06:03.423Z,8.63
2017-07-30T01:08:31.060Z,8.23
2017-07-30T01:10:59.051Z,8.13
2017-07-30T01:13:26.651Z,7.77
2017-07-30T01:15:54.244Z,7.27
2017-07-30T01:18:21.875Z,8.03
2017-07-30T01:20:49.463Z,7.80
2017-07-30T01:23:17.050Z,7.73
2017-07-30T01:25:44.656Z,7.77
2017-07-30T01:28:12.260Z,7.73
2017-07-30T01:30:39.854Z,8.30
2017-07-30T01:33:07.784Z,7.60
2017-07-30T01:35:35.415Z,7.67
2017-07-30T01:38:03.044Z,7.50
2017-07-30T01:40:31.032Z,7.20
2017-07-30T01:42:58.617Z,7.57
2017-07-30T01:45:26.229Z,7.70
2017-07-30T01:47:53.828Z,7.87
2017-07-30T01:50:21.738Z,8.10
2017-07-30T01:52:49.315Z,7.80
2017-07-30T01:55:16.901Z,7.90
2017-07-30T01:57:44.512Z,8.00
2017-07-30T02:00:12.124Z,7.43
2017-07-30T02:02:39.735Z,8.10
2017-07-30T02:05:07.345Z,7.97
2017-07-30T02:07:34.986Z,7.73
2017-07-30T02:10:02.704Z,8.23
2017-07-30T02:12:30.696Z,7.63
2017-07-30T02:14:58.295Z,7.43
2017-07-30T02:17:25.888Z,7.70
2017-07-30T02:19:53.741Z,8.23
2017-07-30T02:22:21.350Z,7.73
2017-07-30T02:24:48.974Z,7.97
2017-07-30T02:27:16.578Z,7.83
2017-07-30T02:29:44.543Z,7.73
2017-07-30T02:32:12.318Z,7.57
2017-07-30T02:34:39.902Z,7.87
2017-07-30T02:37:07.557Z,7.97
2017-07-30T02:39:35.190Z,8.10
2017-07-30T02:42:03.163Z,7.47
2017-07-30T02:44:30.760Z,7.37
2017-07-30T02:46:58.334Z,7.83
2017-07-30T02:49:25.944Z,7.83
2017-07-30T02:51:53.539Z,6.67
2017-07-30T02:54:21.177Z,7.83
2017-07-30T02:56:49.127Z,7.30
2017-07-30T02:59:16.751Z,6.67
2017-07-30T03:01:44.346Z,7.30
2017-07-30T03:04:12.292Z,7.70
2017-07-30T03:06:39.898Z,7.77
2017-07-30T03:09:07.492Z,6.80
2017-07-30T03:11:35.132Z,7.23
2017-07-30T03:14:02.723Z,6.83
2017-07-30T03:16:30.331Z,6.83
2017-07-30T03:18:57.917Z,7.00
2017-07-30T03:21:25.861Z,7.30
2017-07-30T03:23:53.444Z,6.70
2017-07-30T03:26:21.021Z,8.17
2017-07-30T03:28:48.689Z,7.63
2017-07-30T03:31:16.267Z,7.63
2017-07-30T03:33:43.883Z,8.40
2017-07-30T03:36:11.465Z,7.87
2017-07-30T03:38:39.482Z,9.07
2017-07-30T03:41:07.063Z,8.80
2017-07-30T03:43:34.664Z,8.80
2017-07-30T03:46:02.305Z,8.80
2017-07-30T03:48:29.911Z,7.90
2017-07-30T03:50:57.524Z,8.17
2017-07-30T03:53:25.294Z,9.00
2017-07-30T03:55:52.938Z,9.50
2017-07-30T03:58:20.567Z,8.30
2017-07-30T04:00:49.076Z,8.00
2017-07-30T04:03:16.674Z,9.17
2017-07-30T04:05:44.258Z,9.03
2017-07-30T04:08:11.969Z,8.70
2017-07-30T04:10:39.564Z,8.17
2017-07-30T04:13:07.216Z,7.70
2017-07-30T04:15:34.814Z,8.90
2017-07-30T04:18:02.882Z,8.53
2017-07-30T04:20:30.478Z,7.40
2017-07-30T04:22:58.135Z,8.40
2017-07-30T04:25:25.773Z,7.80
2017-07-30T04:27:53.381Z,8.50
2017-07-30T04:30:20.986Z,7.40
2017-07-30T04:32:48.584Z,9.03
2017-07-30T04:35:16.194Z,9.20
2017-07-30T04:37:43.807Z,9.40
2017-07-30T04:40:11.753Z,8.70
2017-07-30T04:42:39.358Z,9.30
2017-07-30T04:45:07.125Z,9.60
2017-07-30T04:47:34.723Z,9.23
2017-07-30T04:50:02.321Z,10.27
2017-07-30T04:52:29.934Z,8.87
2017-07-30T04:54:57.678Z,9.60
2017-07-30T04:57:25.598Z,10.33
2017-07-30T04:59:53.209Z,11.20
2017-07-30T05:02:20.849Z,10.97
2017-07-30T05:04:48.495Z,11.77
2017-07-30T05:07:16.188Z,10.90
2017-07-30T05:09:43.826Z,11.17
2017-07-30T05:12:11.449Z,11.10
2017-07-30T05:14:39.448Z,10.93
2017-07-30T05:19:41.224Z,11.77
2017-07-30T05:22:08.818Z,10.63
2017-07-30T05:24:36.411Z,11.23
2017-07-30T05:27:04.412Z,11.63
2017-07-30T05:29:32.024Z,11.70
2017-07-30T05:31:59.639Z,10.00
2017-07-30T05:34:27.246Z,9.00
2017-07-30T05:36:55.138Z,8.77
2017-07-30T05:39:22.795Z,8.13
2017-07-30T05:41:50.407Z,9.00
2017-07-30T05:44:18.041Z,9.10
2017-07-30T05:46:45.692Z,8.33
2017-07-30T05:49:13.751Z,8.73
2017-07-30T05:51:41.385Z,9.40
2017-07-30T05:54:09.321Z,8.83
2017-07-30T05:56:36.953Z,9.30
2017-07-30T05:59:04.561Z,9.30
2017-07-30T06:01:32.191Z,9.73
2017-07-30T06:03:59.781Z,9.67
2017-07-30T06:06:27.397Z,10.30
2017-07-30T06:08:55.111Z,10.60
2017-07-30T06:11:23.054Z,10.43
2017-07-30T06:13:50.649Z,9.50
2017-07-30T06:16:18.241Z,9.93
2017-07-30T06:18:45.878Z,9.50
2017-07-30T06:21:13.480Z,9.80
2017-07-30T06:23:41.100Z,10.23
2017-07-30T06:26:08.711Z,8.70
2017-07-30T06:28:36.323Z,7.67
2017-07-30T06:31:03.966Z,8.30
2017-07-30T06:33:31.886Z,7.23
2017-07-30T06:35:59.492Z,7.43
2017-07-30T06:38:27.065Z,7.60
2017-07-30T06:40:54.804Z,7.10
2017-07-30T06:43:22.476Z,6.80
2017-07-30T06:45:50.090Z,6.97
2017-07-30T06:48:17.728Z,6.77
2017-07-30T06:50:45.627Z,7.50
2017-07-30T06:53:13.215Z,7.67
2017-07-30T06:55:40.816Z,7.20
2017-07-30T06:58:08.428Z,7.00
2017-07-30T07:00:36.124Z,6.87
2017-07-30T07:03:03.759Z,6.90
2017-07-30T07:05:31.335Z,7.40
2017-07-30T07:07:59.055Z,7.73
2017-07-30T07:10:26.678Z,6.90
2017-07-30T07:12:54.313Z,5.80
2017-07-30T07:15:21.918Z,6.10
2017-07-30T07:17:49.584Z,6.40
2017-07-30T07:20:17.179Z,6.40
2017-07-30T07:22:44.763Z,6.20
2017-07-30T07:25:12.688Z,6.07
2017-07-30T07:27:40.273Z,6.60
2017-07-30T07:30:07.910Z,5.93
2017-07-30T07:32:36.268Z,6.00
2017-07-30T07:35:03.872Z,6.00
2017-07-30T07:37:31.650Z,5.73
2017-07-30T07:39:59.277Z,5.40
2017-07-30T07:42:27.413Z,5.97
2017-07-30T07:44:55.011Z,4.90
2017-07-30T07:47:22.629Z,5.17
2017-07-30T07:49:50.378Z,4.70
2017-07-30T07:52:17.992Z,5.30
2017-07-30T07:54:45.620Z,5.27
2017-07-30T07:57:13.228Z,5.53
2017-07-30T07:59:41.222Z,5.30
2017-07-30T08:02:09.024Z,5.07
2017-07-30T08:04:36.646Z,4.67
2017-07-30T08:07:04.254Z,4.00
2017-07-30T08:09:31.958Z,4.90
2017-07-30T08:11:59.577Z,4.33
2017-07-30T08:14:27.184Z,4.13
2017-07-30T08:16:54.821Z,4.20
2017-07-30T08:19:22.422Z,3.80
2017-07-30T08:21:50.582Z,4.60
2017-07-30T08:24:18.223Z,3.90
2017-07-30T08:26:45.806Z,4.10
2017-07-30T08:29:13.413Z,3.90
2017-07-30T08:31:41.011Z,3.57
2017-07-30T08:34:08.616Z,4.00
2017-07-30T08:36:36.206Z,3.27
2017-07-30T08:39:04.226Z,3.27
2017-07-30T08:41:31.833Z,3.00
2017-07-30T08:43:59.474Z,2.97
2017-07-30T08:46:27.078Z,3.33
2017-07-30T08:48:54.669Z,2.80
2017-07-30T08:51:22.278Z,2.77
2017-07-30T08:53:49.862Z,2.30
2017-07-30T08:56:17.878Z,2.63
2017-07-30T08:58:45.485Z,2.70
2017-07-30T09:01:13.105Z,2.30
2017-07-30T09:03:40.718Z,2.27
2017-07-30T09:06:08.324Z,2.30
2017-07-30T09:08:35.940Z,2.20
2017-07-30T09:11:03.620Z,2.43
2017-07-30T09:13:31.269Z,2.20
2017-07-30T09:15:58.885Z,2.13
2017-07-30T09:18:26.497Z,1.90
2017-07-30T09:20:54.095Z,2.07
2017-07-30T09:23:22.035Z,2.13
2017-07-30T09:25:49.662Z,1.93
2017-07-30T09:28:17.310Z,1.90
2017-07-30T09:30:44.937Z,1.93
2017-07-30T09:33:12.513Z,2.13
2017-07-30T09:35:40.145Z,1.77
2017-07-30T09:38:07.748Z,2.00
2017-07-30T09:40:35.397Z,1.80
2017-07-30T09:43:03.046Z,2.23
2017-07-30T09:45:31.325Z,1.80
2017-07-30T09:47:58.913Z,1.93
2017-07-30T09:50:26.525Z,1.60
2017-07-30T09:52:54.162Z,1.80
2017-07-30T09:55:21.747Z,1.80
2017-07-30T09:57:49.489Z,1.70
2017-07-30T10:00:17.114Z,3.07
2017-07-30T10:02:45.190Z,10.07
2017-07-30T10:05:12.891Z,3.10
2017-07-30T10:07:40.477Z,3.03
2017-07-30T10:10:08.117Z,1.80
2017-07-30T10:12:35.701Z,1.40
2017-07-30T10:15:03.462Z,2.00
2017-07-30T10:17:31.053Z,1.70
2017-07-30T10:19:58.670Z,1.80
2017-07-30T10:22:26.972Z,1.90
2017-07-30T10:24:54.954Z,2.07
2017-07-30T10:27:22.538Z,1.90
2017-07-30T10:29:50.149Z,1.80
2017-07-30T10:32:17.777Z,1.97
2017-07-30T10:34:45.372Z,1.97
2017-07-30T10:37:13.016Z,2.03
2017-07-30T10:39:41.069Z,1.80
2017-07-30T10:42:09.057Z,1.70
2017-07-30T10:44:37.037Z,2.10
2017-07-30T10:47:04.657Z,1.80
2017-07-30T10:49:32.245Z,1.90
2017-07-30T10:52:00.262Z,2.07
2017-07-30T10:54:27.859Z,2.07
2017-07-30T10:56:55.453Z,1.97
2017-07-30T10:59:23.067Z,1.93
2017-07-30T11:01:50.690Z,2.37
2017-07-30T11:04:20.005Z,1.83
2017-07-30T11:06:47.678Z,2.10
2017-07-30T11:09:15.619Z,2.40
2017-07-30T11:11:43.223Z,2.20
2017-07-30T11:14:10.848Z,2.00
2017-07-30T11:16:38.485Z,1.80
2017-07-30T11:19:06.240Z,1.93
2017-07-30T11:21:34.179Z,1.70
2017-07-30T11:24:01.827Z,1.87
2017-07-30T11:26:29.842Z,1.77
2017-07-30T11:28:57.491Z,2.00
2017-07-30T11:31:25.108Z,2.23
2017-07-30T11:33:52.748Z,2.00
2017-07-30T11:36:20.329Z,2.00
2017-07-30T11:38:48.293Z,1.77
2017-07-30T11:41:15.896Z,1.87
2017-07-30T11:43:43.515Z,1.97
2017-07-30T11:46:11.134Z,2.33
2017-07-30T11:48:38.717Z,1.93
2017-07-30T11:51:06.327Z,2.10
2017-07-30T11:53:34.027Z,2.00
2017-07-30T11:56:02.037Z,1.60
2017-07-30T11:58:29.630Z,2.40
2017-07-30T12:00:57.249Z,1.97
2017-07-30T12:03:24.859Z,2.03
2017-07-30T12:05:52.667Z,2.13
2017-07-30T12:08:20.401Z,2.10
2017-07-30T12:10:47.981Z,2.13
2017-07-30T12:13:15.659Z,1.80
2017-07-30T12:15:43.279Z,1.80
2017-07-30T12:18:11.637Z,1.90
2017-07-30T12:20:39.273Z,2.10
2017-07-30T12:23:06.910Z,2.17
2017-07-30T12:25:34.507Z,2.17
2017-07-30T12:28:02.131Z,1.70
2017-07-30T12:30:29.749Z,2.00
2017-07-30T12:32:57.518Z,1.97
2017-07-30T12:35:25.875Z,1.90
2017-07-30T12:37:53.499Z,1.50
2017-07-30T12:40:21.326Z,2.03
2017-07-30T12:42:48.967Z,2.00
2017-07-30T12:45:16.558Z,1.83
2017-07-30T12:47:44.235Z,2.10
2017-07-30T12:50:11.851Z,1.90
2017-07-30T12:52:39.797Z,2.07
2017-07-30T12:55:07.422Z,2.10
2017-07-30T12:57:35.023Z,2.20
2017-07-30T13:00:02.671Z,2.10
2017-07-30T13:02:30.289Z,1.90
2017-07-30T13:04:58.400Z,1.93
2017-07-30T13:07:26.062Z,2.33
2017-07-30T13:09:54.035Z,1.90
2017-07-30T13:12:21.654Z,1.70
2017-07-30T13:14:49.650Z,1.73
2017-07-30T13:17:17.449Z,2.03
2017-07-30T13:19:45.041Z,1.70
2017-07-30T13:22:12.673Z,2.00
2017-07-30T13:24:40.293Z,1.80
2017-07-30T13:27:07.900Z,1.97
2017-07-30T13:29:35.516Z,1.97
2017-07-30T13:32:03.520Z,1.73
2017-07-30T13:34:31.141Z,1.77
2017-07-30T13:36:59.406Z,2.10
2017-07-30T13:39:27.023Z,1.70
2017-07-30T13:41:54.669Z,2.13
2017-07-30T13:44:22.325Z,1.87
2017-07-30T13:46:49.955Z,2.30
2017-07-30T13:49:17.589Z,2.13
2017-07-30T13:51:45.205Z,2.10
2017-07-30T13:54:13.631Z,2.17
2017-07-30T13:56:41.230Z,1.70
2017-07-30T13:59:08.835Z,1.70
2017-07-30T14:01:36.467Z,1.67
2017-07-30T14:04:04.388Z,2.10
2017-07-30T14:06:32.984Z,1.70
2017-07-30T14:09:00.693Z,2.00
2017-07-30T14:11:28.665Z,1.63
2017-07-30T14:13:56.811Z,1.80
2017-07-30T14:16:24.412Z,1.83
2017-07-30T14:18:52.135Z,1.90
2017-07-30T14:21:19.746Z,1.80
2017-07-30T14:23:47.351Z,2.07
2017-07-30T14:26:15.341Z,2.10
2017-07-30T14:28:43.317Z,2.20
2017-07-30T14:31:11.012Z,2.00
2017-07-30T14:33:39.089Z,1.80
2017-07-30T14:36:06.817Z,1.70
2017-07-30T14:38:34.659Z,2.10
2017-07-30T14:41:02.656Z,2.10
2017-07-30T14:43:30.307Z,1.90
2017-07-30T14:45:57.934Z,1.70
2017-07-30T14:48:27.113Z,1.70
2017-07-30T14:50:55.165Z,1.93
2017-07-30T14:53:22.836Z,1.60
2017-07-30T14:55:50.451Z,1.93
2017-07-30T14:58:18.165Z,2.23
2017-07-30T15:00:46.965Z,2.07
2017-07-30T15:03:14.690Z,1.90
2017-07-30T15:05:42.337Z,1.90
2017-07-30T15:08:09.947Z,1.90
2017-07-30T15:10:37.545Z,1.90
2017-07-30T15:13:05.545Z,1.93
2017-07-30T15:15:34.834Z,1.83
2017-07-30T15:18:02.580Z,1.70
2017-07-30T15:20:30.214Z,1.70
2017-07-30T15:22:57.819Z,2.20
2017-07-30T15:25:26.537Z,1.90
2017-07-30T15:27:54.151Z,2.03
2017-07-30T15:30:23.213Z,1.67
2017-07-30T15:32:50.837Z,1.80
2017-07-30T15:35:18.468Z,1.93
2017-07-30T15:37:46.089Z,2.50
2017-07-30T15:40:15.732Z,1.80
2017-07-30T15:42:43.431Z,1.67
2017-07-30T15:45:11.063Z,1.90
2017-07-30T15:47:39.092Z,1.67
2017-07-30T15:50:06.739Z,1.77
2017-07-30T15:52:34.696Z,2.10
2017-07-30T15:55:02.397Z,1.90
2017-07-30T15:57:29.988Z,1.70
2017-07-30T15:59:58.260Z,2.07
2017-07-30T16:02:26.192Z,1.60
2017-07-30T16:04:54.198Z,2.70
2017-07-30T16:07:21.815Z,2.50
2017-07-30T16:09:49.436Z,2.63
2017-07-30T16:12:17.084Z,2.70
2017-07-30T16:14:44.704Z,2.50
2017-07-30T16:17:12.368Z,2.20
2017-07-30T16:19:39.963Z,2.20
2017-07-30T16:22:07.600Z,3.23
2017-07-30T16:24:35.220Z,3.00
2017-07-30T16:27:03.183Z,3.07
2017-07-30T16:29:30.793Z,3.07
2017-07-30T16:31:58.415Z,3.33
2017-07-30T16:34:26.042Z,2.60
2017-07-30T16:36:53.645Z,3.20
2017-07-30T16:39:21.826Z,2.47
2017-07-30T16:41:49.470Z,2.40
2017-07-30T16:44:17.202Z,2.37
2017-07-30T16:46:44.843Z,2.60
2017-07-30T16:49:12.990Z,2.30
2017-07-30T16:51:40.602Z,2.77
2017-07-30T16:54:08.188Z,2.40
2017-07-30T16:56:35.784Z,2.47
2017-07-30T16:59:03.623Z,2.47
2017-07-30T17:01:31.264Z,2.47
2017-07-30T17:03:58.985Z,3.00
2017-07-30T17:06:26.614Z,2.60
2017-07-30T17:08:54.229Z,3.07
2017-07-30T17:11:21.823Z,2.47
2017-07-30T17:13:49.466Z,3.33
2017-07-30T17:16:17.310Z,2.67
2017-07-30T17:18:45.343Z,2.77
2017-07-30T17:21:12.978Z,3.23
2017-07-30T17:23:40.563Z,3.20
2017-07-30T17:26:08.641Z,3.47
2017-07-30T17:28:36.269Z,2.77
2017-07-30T17:31:03.881Z,3.20
2017-07-30T17:33:31.494Z,3.10
2017-07-30T17:35:59.112Z,3.20
2017-07-30T17:38:26.962Z,2.50
2017-07-30T17:40:54.670Z,3.77
2017-07-30T17:43:22.677Z,3.47
2017-07-30T17:45:50.291Z,3.10
2017-07-30T17:48:17.899Z,3.10
2017-07-30T17:50:45.529Z,3.13
2017-07-30T17:53:13.590Z,2.90
2017-07-30T17:55:41.643Z,3.17
2017-07-30T17:58:09.248Z,3.93
2017-07-30T18:00:36.881Z,3.40
2017-07-30T18:03:04.540Z,3.00
2017-07-30T18:05:32.843Z,2.67
2017-07-30T18:08:00.465Z,3.07
2017-07-30T18:10:28.327Z,3.23
2017-07-30T18:12:55.936Z,3.03
2017-07-30T18:15:23.568Z,3.57
2017-07-30T18:17:51.213Z,2.87
2017-07-30T18:20:19.274Z,3.23
2017-07-30T18:22:47.304Z,3.00
2017-07-30T18:25:16.228Z,3.00
2017-07-30T18:27:43.981Z,2.93
2017-07-30T18:30:11.664Z,2.70
2017-07-30T18:32:39.280Z,3.07
2017-07-30T18:35:07.482Z,3.60
2017-07-30T18:37:35.111Z,3.10
2017-07-30T18:40:03.798Z,4.07
2017-07-30T18:42:31.425Z,5.43
2017-07-30T18:44:59.055Z,4.67
2017-07-30T18:47:26.836Z,3.93
2017-07-30T18:49:54.472Z,4.40
2017-07-30T18:52:22.097Z,3.60
2017-07-30T18:54:49.724Z,3.77
2017-07-30T18:57:18.072Z,3.10
2017-07-30T18:59:45.714Z,3.80
2017-07-30T19:02:14.807Z,3.73
2017-07-30T19:04:42.545Z,3.30
2017-07-30T19:07:10.186Z,4.13
2017-07-30T19:09:37.836Z,3.53
2017-07-30T19:12:05.540Z,3.43
2017-07-30T19:14:34.616Z,3.13
2017-07-30T19:17:02.228Z,3.40
2017-07-30T19:19:29.844Z,3.80
2017-07-30T19:21:57.502Z,3.90
2017-07-30T19:24:25.119Z,3.90
2017-07-30T19:26:52.778Z,3.47
2017-07-30T19:29:20.405Z,3.87
2017-07-30T19:31:48.426Z,4.27
2017-07-30T19:34:16.055Z,3.67
2017-07-30T19:36:45.412Z,3.90
2017-07-30T19:39:13.158Z,4.03
2017-07-30T19:41:40.781Z,4.20
2017-07-30T19:44:09.620Z,3.97
2017-07-30T19:46:37.240Z,3.40
2017-07-30T19:49:05.022Z,3.93
2017-07-30T19:51:32.627Z,4.07
2017-07-30T19:54:00.544Z,4.43
2017-07-30T19:56:28.138Z,4.60
2017-07-30T19:58:55.747Z,4.07
2017-07-30T20:01:23.362Z,4.20
2017-07-30T20:03:50.973Z,4.00
2017-07-30T20:06:18.804Z,3.80
2017-07-30T20:08:46.430Z,4.70
2017-07-30T20:11:14.032Z,3.07
2017-07-30T20:13:41.610Z,3.80
2017-07-30T20:16:09.241Z,4.53
2017-07-30T20:18:36.878Z,4.20
2017-07-30T20:21:04.454Z,3.77
2017-07-30T20:23:32.184Z,4.20
2017-07-30T20:25:59.788Z,4.17
2017-07-30T20:28:27.990Z,4.03
2017-07-30T20:30:55.620Z,3.80
2017-07-30T20:33:23.263Z,5.33
2017-07-30T20:35:50.880Z,4.03
2017-07-30T20:38:18.549Z,4.07
2017-07-30T20:40:46.168Z,4.17
2017-07-30T20:43:13.829Z,3.37
2017-07-30T20:45:41.463Z,4.27
2017-07-30T20:48:09.117Z,5.10
2017-07-30T20:50:36.733Z,4.53
2017-07-30T20:53:04.358Z,4.17
2017-07-30T20:55:32.056Z,4.37
2017-07-30T20:57:59.687Z,3.47
2017-07-30T21:00:27.300Z,3.67
2017-07-30T21:02:55.023Z,4.30
2017-07-30T21:05:23.262Z,4.07
2017-07-30T21:07:50.888Z,3.97
2017-07-30T21:10:18.482Z,4.40
2017-07-30T21:12:46.439Z,4.20
2017-07-30T21:15:14.054Z,3.20
2017-07-30T21:17:41.613Z,3.70
2017-07-30T21:20:09.245Z,4.30
2017-07-30T21:22:36.863Z,3.97
2017-07-30T21:25:04.581Z,4.23
2017-07-30T21:27:32.192Z,4.40
2017-07-30T21:29:59.845Z,4.03
2017-07-30T21:32:27.463Z,4.53
2017-07-30T21:34:55.097Z,4.07
2017-07-30T21:37:22.707Z,4.07
2017-07-30T21:39:50.510Z,3.70
2017-07-30T21:42:18.133Z,4.83
2017-07-30T21:44:45.743Z,4.00
2017-07-30T21:47:13.410Z,4.50
2017-07-30T21:49:41.043Z,4.20
2017-07-30T21:52:08.683Z,4.20
2017-07-30T21:54:36.371Z,4.00
2017-07-30T21:57:03.949Z,4.13
2017-07-30T21:59:31.572Z,6.10
2017-07-30T22:01:59.162Z,3.77
2017-07-30T22:04:26.883Z,4.40
2017-07-30T22:06:54.484Z,4.43
2017-07-30T22:09:22.142Z,4.03
2017-07-30T22:11:50.426Z,4.10
2017-07-30T22:14:18.216Z,4.07
2017-07-30T22:16:46.008Z,3.40
2017-07-30T22:19:13.638Z,3.43
2017-07-30T22:21:41.285Z,3.50
2017-07-30T22:24:08.961Z,3.43
2017-07-30T22:26:36.584Z,3.27
2017-07-30T22:29:04.195Z,3.23
2017-07-30T22:31:31.829Z,3.20
2017-07-30T22:33:59.548Z,3.23
2017-07-30T22:36:27.158Z,3.27
2017-07-30T22:38:55.634Z,3.20
2017-07-30T22:41:24.385Z,3.03
2017-07-30T22:43:52.311Z,2.97
2017-07-30T22:46:19.893Z,2.50
2017-07-30T22:48:47.567Z,2.77
2017-07-30T22:51:15.173Z,2.90
2017-07-30T22:53:42.845Z,2.83
2017-07-30T22:56:11.860Z,3.10
2017-07-30T22:58:39.544Z,2.30
2017-07-30T23:01:07.205Z,3.30
2017-07-30T23:03:34.799Z,4.00
2017-07-30T23:06:02.482Z,2.77
2017-07-30T23:08:30.102Z,2.90
2017-07-30T23:10:57.714Z,3.13
2017-07-30T23:13:25.421Z,3.00
2017-07-30T23:15:53.077Z,3.20
2017-07-30T23:18:20.679Z,3.43
2017-07-30T23:20:48.269Z,2.60
2017-07-30T23:23:15.888Z,3.00
2017-07-30T23:25:43.502Z,2.67
2017-07-30T23:28:11.120Z,2.97
2017-07-30T23:30:38.739Z,3.47
2017-07-30T23:33:06.349Z,2.90
2017-07-30T23:35:33.954Z,3.00
2017-07-30T23:38:01.546Z,3.00
2017-07-30T23:40:29.267Z,2.97
2017-07-30T23:42:56.851Z,3.27
2017-07-30T23:45:24.464Z,3.10
2017-07-30T23:47:52.059Z,3.10
2017-07-30T23:50:19.671Z,2.90
2017-07-30T23:52:47.300Z,2.80
2017-07-30T23:55:14.937Z,2.93
2017-07-30T23:57:42.550Z,3.13
